Terminal Aerodrome Forecast
Issued by NWS North Platte, NE

Home | Current Version | Previous Version | Text Only | Print | Product List | Glossary On
Versions: 1 2 3 4 5 6 7 8 9 10 11 12 13
000
FTUS43 KLBF 231124
TAFVTN
TAF
KVTN 231124Z 2312/2412 VRB04KT P6SM OVC120
     FM231600 17006KT P6SM OVC120
     FM231800 16010KT P6SM OVC120
     FM232000 17014G20KT P6SM OVC120
     FM240000 15010KT P6SM BKN030 OVC100
     FM240600 36006KT P6SM OVC020 PROB30 2406/2412 3SM -SN BR
      OVC020=

USA.gov is the U.S. government's official web portal to all federal, state and local government web resources and services.